Time;durP1;ratioP1;P1;durP2;ratioP2;P2;SDS_P1;SDS_P2;PMS_P1;PMS_P2;Temp;Humidity;BMP_temperature;BMP_pressure;BME280_temperature;BME280_humidity;BME280_pressure;Samples;Min_cycle;Max_cycle;Signal;HPM_P1;HPM_P2
2022/04/17 00:01:30;;;;;;;9.82;5.72;;;9.10;9.90;;;;;;5065003;28;25060;-67
2022/04/17 00:03:55;;;;;;;8.05;5.85;;;9.10;9.40;;;;;;5047025;28;25121;-67
2022/04/17 00:06:21;;;;;;;8.60;5.80;;;9.00;10.10;;;;;;5065834;28;25053;-67
2022/04/17 00:08:46;;;;;;;11.90;6.93;;;9.00;10.20;;;;;;5066479;28;25047;-68
2022/04/17 00:11:12;;;;;;;10.07;6.57;;;8.90;10.50;;;;;;5065842;28;25108;-68
2022/04/17 00:13:38;;;;;;;9.15;6.32;;;8.80;11.10;;;;;;5064918;28;25107;-68
2022/04/17 00:16:03;;;;;;;9.88;6.95;;;8.80;11.40;;;;;;5063675;28;25079;-68
2022/04/17 00:18:29;;;;;;;9.43;6.55;;;8.70;11.80;;;;;;5064940;28;25060;-68
2022/04/17 00:20:54;;;;;;;12.07;7.45;;;8.70;11.90;;;;;;5065480;28;25095;-67
2022/04/17 00:23:20;;;;;;;8.02;6.65;;;8.70;11.90;;;;;;5063718;28;25064;-67
2022/04/17 00:25:46;;;;;;;9.77;6.53;;;8.70;12.30;;;;;;5065580;28;25114;-67
2022/04/17 00:28:11;;;;;;;11.23;6.68;;;8.70;12.20;;;;;;5063590;28;25145;-67
2022/04/17 00:30:37;;;;;;;10.77;6.72;;;8.60;12.30;;;;;;5064763;28;25077;-67
2022/04/17 00:33:02;;;;;;;13.25;6.82;;;8.50;12.90;;;;;;5063675;28;25070;-68
2022/04/17 00:35:28;;;;;;;11.60;6.63;;;8.50;13.20;;;;;;5064293;28;25080;-68
2022/04/17 00:37:54;;;;;;;8.85;6.50;;;8.40;12.70;;;;;;5046992;28;25060;-68
2022/04/17 00:40:19;;;;;;;10.38;7.35;;;8.50;13.20;;;;;;5065518;28;25057;-67
2022/04/17 00:42:45;;;;;;;12.40;6.85;;;8.40;12.80;;;;;;5064381;28;25076;-66
2022/04/17 00:45:11;;;;;;;8.57;6.38;;;8.40;12.70;;;;;;5065040;28;25064;-67
2022/04/17 00:47:36;;;;;;;9.73;6.82;;;8.30;12.90;;;;;;5065142;28;25064;-67
2022/04/17 00:50:02;;;;;;;13.45;7.70;;;8.30;13.30;;;;;;5065945;28;25072;-68
2022/04/17 00:52:29;;;;;;;10.02;7.47;;;8.30;13.10;;;;;;5065397;28;25056;-68
2022/04/17 00:54:55;;;;;;;12.43;7.22;;;8.20;13.80;;;;;;5064624;28;25068;-65
2022/04/17 00:57:22;;;;;;;11.32;7.03;;;8.20;14.00;;;;;;5064797;28;25140;-68
2022/04/17 00:59:49;;;;;;;10.43;6.90;;;8.20;14.70;;;;;;5063850;28;25101;-68
2022/04/17 01:02:15;;;;;;;12.13;7.32;;;8.10;15.00;;;;;;5046628;28;25059;-69
2022/04/17 01:04:41;;;;;;;10.07;6.88;;;8.10;15.20;;;;;;5046196;28;25054;-67
2022/04/17 01:07:10;;;;;;;10.25;7.25;;;8.10;15.70;;;;;;5064627;28;25070;-67
2022/04/17 01:09:35;;;;;;;11.55;7.28;;;8.10;15.40;;;;;;5064202;28;25170;-66
2022/04/17 01:12:01;;;;;;;14.57;7.35;;;8.00;15.90;;;;;;5064464;28;25160;-67
2022/04/17 01:14:27;;;;;;;11.77;8.00;;;8.00;15.90;;;;;;5062520;28;25076;-66
2022/04/17 01:16:53;;;;;;;11.13;7.32;;;8.00;16.10;;;;;;5067279;28;25066;-67
2022/04/17 01:19:19;;;;;;;14.60;7.50;;;8.00;16.10;;;;;;5067090;28;25073;-67
2022/04/17 01:21:46;;;;;;;10.07;7.07;;;8.00;16.10;;;;;;5064607;28;25079;-67
2022/04/17 01:26:59;;;;;;;11.93;7.35;;;8.00;15.30;;;;;;5064075;28;25071;-67
2022/04/17 01:29:31;;;;;;;10.68;7.63;;;8.00;15.40;;;;;;5064338;28;25089;-67
2022/04/17 01:32:00;;;;;;;10.07;6.90;;;8.00;14.90;;;;;;5064176;28;25052;-70
2022/04/17 01:34:25;;;;;;;15.20;7.72;;;8.00;15.00;;;;;;5063559;28;25048;-68
2022/04/17 01:36:51;;;;;;;9.88;7.25;;;7.90;14.90;;;;;;5064328;28;25065;-68
2022/04/17 01:39:18;;;;;;;11.13;7.60;;;7.90;15.20;;;;;;5064258;28;25138;-67
2022/04/17 01:41:45;;;;;;;11.35;7.78;;;7.90;15.00;;;;;;5063668;28;25059;-67
2022/04/17 01:44:11;;;;;;;13.93;8.70;;;7.90;15.20;;;;;;5045795;28;25149;-67
2022/04/17 01:46:37;;;;;;;11.00;7.15;;;7.90;14.90;;;;;;5064147;28;25079;-66
2022/04/17 01:49:06;;;;;;;14.30;7.75;;;7.80;15.30;;;;;;5065337;28;25130;-67
2022/04/17 01:51:38;;;;;;;15.25;7.57;;;7.80;15.00;;;;;;5065837;28;25159;-67
2022/04/17 01:54:06;;;;;;;11.55;7.28;;;7.80;15.20;;;;;;5064237;28;25145;-67
2022/04/17 01:56:31;;;;;;;13.27;7.25;;;7.70;15.20;;;;;;5065145;28;25099;-68
2022/04/17 01:58:57;;;;;;;10.77;7.35;;;7.70;14.60;;;;;;5066964;28;25099;-67
2022/04/17 02:01:23;;;;;;;11.93;7.55;;;7.70;14.70;;;;;;5064696;28;25088;-66
2022/04/17 02:03:48;;;;;;;11.75;7.38;;;7.70;14.60;;;;;;5063647;28;25070;-67
2022/04/17 02:06:14;;;;;;;12.95;7.43;;;7.80;14.20;;;;;;5063399;28;25083;-67
2022/04/17 02:08:40;;;;;;;11.68;7.55;;;7.80;13.10;;;;;;5045345;28;25140;-68
2022/04/17 02:11:06;;;;;;;12.45;7.45;;;7.80;12.80;;;;;;5064045;28;25116;-68
2022/04/17 02:13:34;;;;;;;10.13;7.00;;;7.80;12.80;;;;;;5045459;28;25057;-67
2022/04/17 02:15:59;;;;;;;12.35;7.63;;;7.80;12.70;;;;;;5063590;28;25055;-68
2022/04/17 02:18:26;;;;;;;13.60;7.55;;;7.70;12.30;;;;;;5063656;28;25071;-68
2022/04/17 02:20:53;;;;;;;12.25;7.60;;;7.70;12.50;;;;;;5062928;28;25097;-68
2022/04/17 02:23:19;;;;;;;13.65;7.78;;;7.70;12.60;;;;;;5064223;28;24844;-68
2022/04/17 02:25:44;;;;;;;12.38;7.50;;;7.60;12.70;;;;;;5065719;28;25101;-67
2022/04/17 02:28:10;;;;;;;10.13;7.45;;;7.60;13.30;;;;;;5065273;28;25058;-68
2022/04/17 02:30:36;;;;;;;15.20;8.73;;;7.60;13.20;;;;;;5066394;28;25133;-67
2022/04/17 02:33:02;;;;;;;14.85;7.00;;;7.60;12.80;;;;;;5047684;28;25126;-67
2022/04/17 02:35:28;;;;;;;10.70;7.13;;;7.50;12.80;;;;;;5066255;28;25152;-69
2022/04/17 02:37:54;;;;;;;11.57;7.43;;;7.50;12.80;;;;;;5066360;28;25099;-68
2022/04/17 02:40:19;;;;;;;12.55;7.63;;;7.50;12.50;;;;;;5067021;28;25086;-67
2022/04/17 02:42:45;;;;;;;12.77;8.55;;;7.40;12.50;;;;;;5069047;28;25160;-66
2022/04/17 02:45:10;;;;;;;13.00;7.85;;;7.40;12.50;;;;;;5070422;28;25162;-72
2022/04/17 02:47:46;;;;;;;9.35;7.55;;;7.40;12.40;;;;;;5070089;28;25085;-67
2022/04/17 02:50:14;;;;;;;13.98;8.70;;;7.30;12.50;;;;;;5065698;28;25115;-67
2022/04/17 02:52:40;;;;;;;12.35;7.25;;;7.30;13.00;;;;;;5065669;28;25079;-68
2022/04/17 02:55:06;;;;;;;12.32;8.07;;;7.20;13.30;;;;;;5065916;28;25067;-67
2022/04/17 02:57:32;;;;;;;14.18;7.35;;;7.20;13.00;;;;;;5064864;28;25157;-68
2022/04/17 02:59:58;;;;;;;10.13;7.40;;;7.20;13.30;;;;;;5066777;28;25054;-68
2022/04/17 03:07:53;;;;;;;11.52;7.55;;;7.10;13.90;;;;;;5064836;28;25106;-66
2022/04/17 03:10:19;;;;;;;14.65;8.57;;;7.20;14.40;;;;;;5065384;28;25095;-66
2022/04/17 03:12:45;;;;;;;13.05;8.57;;;7.10;14.60;;;;;;5065884;28;25093;-67
2022/04/17 03:15:11;;;;;;;13.02;8.43;;;7.10;15.00;;;;;;5065758;28;25059;-68
2022/04/17 03:17:37;;;;;;;13.50;7.78;;;7.00;16.20;;;;;;5065688;28;25121;-67
2022/04/17 03:20:04;;;;;;;11.10;7.93;;;7.00;16.30;;;;;;5065364;28;25058;-67
2022/04/17 03:22:32;;;;;;;13.68;8.13;;;6.90;16.50;;;;;;5066010;28;25113;-67
2022/04/17 03:25:00;;;;;;;9.68;7.70;;;6.80;17.00;;;;;;5064709;28;25087;-66
2022/04/17 03:27:26;;;;;;;12.13;8.15;;;6.70;18.30;;;;;;5065158;28;25086;-67
2022/04/17 03:29:51;;;;;;;16.45;8.18;;;6.70;18.30;;;;;;5063856;28;25096;-68
2022/04/17 03:32:17;;;;;;;13.02;8.48;;;6.70;18.30;;;;;;5064986;28;25077;-67
2022/04/17 03:34:42;;;;;;;15.20;8.52;;;6.60;18.20;;;;;;5064277;28;25067;-67
2022/04/17 03:37:08;;;;;;;12.93;8.25;;;6.60;18.70;;;;;;5064599;28;25069;-67
2022/04/17 03:39:34;;;;;;;12.35;8.07;;;6.50;19.20;;;;;;5064669;28;25059;-67
2022/04/17 03:42:00;;;;;;;15.70;8.85;;;6.50;19.50;;;;;;5064845;28;25124;-68
2022/04/17 03:44:26;;;;;;;12.07;8.13;;;6.50;19.80;;;;;;5046118;28;25121;-67
2022/04/17 03:46:51;;;;;;;18.92;8.93;;;6.40;20.40;;;;;;5064605;28;25062;-67
2022/04/17 03:49:17;;;;;;;14.18;8.77;;;6.40;20.50;;;;;;5063626;28;25061;-68
2022/04/17 03:51:43;;;;;;;13.25;8.32;;;6.30;20.70;;;;;;5063893;28;25059;-67
2022/04/17 03:54:09;;;;;;;11.65;8.45;;;6.30;21.40;;;;;;5064889;28;25080;-67
2022/04/17 03:56:34;;;;;;;16.92;8.95;;;6.30;21.60;;;;;;5064542;28;25060;-67
2022/04/17 03:59:01;;;;;;;13.57;8.80;;;6.30;21.50;;;;;;5064687;28;25080;-67
2022/04/17 04:01:27;;;;;;;15.18;8.85;;;6.30;21.60;;;;;;5065343;28;25061;-67
2022/04/17 04:03:55;;;;;;;12.23;8.70;;;6.20;22.00;;;;;;5064181;28;25061;-67
2022/04/17 04:06:21;;;;;;;14.38;8.77;;;6.20;21.80;;;;;;5065062;28;25046;-67
2022/04/17 04:08:50;;;;;;;16.42;8.43;;;6.10;22.30;;;;;;5065393;28;25065;-67
2022/04/17 04:11:17;;;;;;;13.60;9.13;;;6.10;22.80;;;;;;5063907;28;25156;-67
2022/04/17 04:13:43;;;;;;;13.07;8.63;;;6.20;22.50;;;;;;5065138;28;25058;-68
2022/04/17 04:16:09;;;;;;;11.60;7.93;;;6.10;22.20;;;;;;5069871;28;25156;-67
2022/04/17 04:18:34;;;;;;;17.45;8.13;;;6.10;22.20;;;;;;5065316;28;25150;-67
2022/04/17 04:21:00;;;;;;;14.10;8.73;;;6.10;22.90;;;;;;5063399;28;25083;-67
2022/04/17 04:23:26;;;;;;;13.57;8.77;;;6.10;22.90;;;;;;5045856;28;25073;-67
2022/04/17 04:25:52;;;;;;;11.90;7.78;;;6.00;23.40;;;;;;5064742;28;25051;-66
2022/04/17 04:28:33;;;;;;;14.65;8.07;;;6.00;23.30;;;;;;5065962;28;25066;-67
2022/04/17 04:30:59;;;;;;;12.80;8.43;;;6.00;23.50;;;;;;5064021;28;25090;-67
2022/04/17 04:33:25;;;;;;;11.80;8.05;;;6.00;23.60;;;;;;5063311;28;25093;-67
2022/04/17 04:35:51;;;;;;;13.13;8.27;;;6.00;23.50;;;;;;5063410;28;25077;-67
2022/04/17 04:38:17;;;;;;;11.45;8.32;;;5.90;23.40;;;;;;5063780;28;25055;-67
2022/04/17 04:40:42;;;;;;;12.68;8.38;;;5.90;23.40;;;;;;5062591;28;25070;-66
2022/04/17 04:43:08;;;;;;;14.30;8.43;;;5.90;23.50;;;;;;5061707;28;25122;-67
2022/04/17 04:49:29;;;;;;;12.32;8.15;;;5.90;23.60;;;;;;5063563;28;25063;-68
2022/04/17 04:51:06;;;;;;;15.30;8.15;;;5.90;23.80;;;;;;5062901;28;25091;-68
2022/04/17 04:53:32;;;;;;;13.43;8.05;;;5.80;23.90;;;;;;5063175;28;25116;-67
2022/04/17 04:55:57;;;;;;;11.75;8.43;;;5.80;24.30;;;;;;5044675;28;25144;-67
2022/04/17 04:58:23;;;;;;;13.98;8.38;;;5.80;24.50;;;;;;5061550;28;25064;-68
2022/04/17 05:00:48;;;;;;;12.80;8.05;;;5.80;24.60;;;;;;5062997;28;25060;-67
2022/04/17 05:03:14;;;;;;;11.13;7.90;;;5.80;24.90;;;;;;5064038;28;25068;-68
2022/04/17 05:05:39;;;;;;;13.38;8.15;;;5.70;25.10;;;;;;5062671;28;25066;-68
2022/04/17 05:08:05;;;;;;;15.38;8.38;;;5.70;25.00;;;;;;5062862;28;25084;-67
2022/04/17 05:10:30;;;;;;;11.52;7.90;;;5.70;24.90;;;;;;5063822;28;25078;-67
2022/04/17 05:12:56;;;;;;;11.90;8.07;;;5.70;25.00;;;;;;5062792;28;25074;-66
2022/04/17 05:15:22;;;;;;;9.90;7.60;;;5.70;25.00;;;;;;5064114;28;25066;-66
2022/04/17 05:17:48;;;;;;;10.82;7.85;;;5.80;25.30;;;;;;5063131;28;25062;-68
2022/04/17 05:20:15;;;;;;;11.00;7.68;;;5.80;24.90;;;;;;5063235;28;25079;-68
2022/04/17 05:22:40;;;;;;;12.20;7.97;;;5.80;24.30;;;;;;5062761;28;25089;-67
2022/04/17 05:25:06;;;;;;;14.65;7.75;;;5.80;24.50;;;;;;5061888;28;25150;-66
2022/04/17 05:27:32;;;;;;;15.18;8.70;;;5.80;24.30;;;;;;5062270;28;25069;-68
2022/04/17 05:29:58;;;;;;;16.35;8.05;;;5.80;24.40;;;;;;5062454;28;25122;-67
2022/04/17 05:32:24;;;;;;;10.02;7.78;;;5.90;23.80;;;;;;5064852;28;25127;-66
2022/04/17 05:34:50;;;;;;;11.32;7.72;;;5.90;23.90;;;;;;5074734;28;25136;-66
2022/04/17 05:37:16;;;;;;;10.57;7.70;;;6.00;23.90;;;;;;5072993;28;25135;-67
2022/04/17 05:39:41;;;;;;;14.45;7.85;;;6.00;23.70;;;;;;5082468;28;25074;-66
2022/04/17 05:42:07;;;;;;;11.05;7.15;;;6.10;24.00;;;;;;5067187;28;25059;-66
2022/04/17 05:44:35;;;;;;;16.50;8.13;;;6.10;23.80;;;;;;5048150;28;25094;-66
2022/04/17 05:47:01;;;;;;;12.15;7.57;;;6.20;23.90;;;;;;5066306;28;25058;-66
2022/04/17 05:49:27;;;;;;;10.85;6.97;;;6.20;23.50;;;;;;5065853;28;25102;-66
2022/04/17 05:51:55;;;;;;;10.80;7.32;;;6.30;22.80;;;;;;5065313;28;25164;-66
2022/04/17 05:54:20;;;;;;;11.05;7.05;;;6.30;23.20;;;;;;5062733;28;25072;-66
2022/04/17 05:56:46;;;;;;;9.38;7.20;;;6.30;23.30;;;;;;5062883;28;25067;-67
2022/04/17 05:59:11;;;;;;;10.88;7.53;;;6.40;22.60;;;;;;5062210;28;25081;-65
2022/04/17 06:01:37;;;;;;;13.50;7.32;;;6.50;22.40;;;;;;5066312;28;25053;-66
2022/04/17 06:04:03;;;;;;;11.27;7.25;;;6.60;22.20;;;;;;5065572;28;25065;-67
2022/04/17 06:06:28;;;;;;;8.52;6.25;;;6.60;21.70;;;;;;5065570;28;25073;-65
2022/04/17 06:08:54;;;;;;;10.93;6.78;;;6.60;21.30;;;;;;5066420;28;25091;-65
2022/04/17 06:11:19;;;;;;;11.98;7.28;;;6.70;21.60;;;;;;5049143;28;25120;-65
2022/04/17 06:13:45;;;;;;;10.43;7.07;;;6.80;21.40;;;;;;5065555;28;25150;-65
2022/04/17 06:16:10;;;;;;;11.15;6.70;;;6.90;21.10;;;;;;5066108;28;25128;-65
2022/04/17 06:18:36;;;;;;;10.77;7.43;;;6.90;20.80;;;;;;5048351;28;25060;-67
2022/04/17 06:21:02;;;;;;;13.80;7.25;;;7.00;20.10;;;;;;5047970;28;25068;-65
2022/04/17 06:23:28;;;;;;;10.35;6.85;;;7.00;20.10;;;;;;5066019;28;25059;-66
2022/04/17 06:25:54;;;;;;;9.02;6.35;;;7.10;20.40;;;;;;5067439;28;25074;-66
2022/04/17 06:28:19;;;;;;;9.45;6.93;;;7.20;20.90;;;;;;5066575;28;25079;-65
2022/04/17 06:30:45;;;;;;;10.77;6.90;;;7.30;19.60;;;;;;5066731;28;25153;-66
2022/04/17 06:33:11;;;;;;;9.57;6.88;;;7.30;20.10;;;;;;5066333;28;25141;-65
2022/04/17 06:35:36;;;;;;;9.85;6.43;;;7.40;20.50;;;;;;5065117;28;25059;-65
2022/04/17 06:38:03;;;;;;;9.25;6.82;;;7.50;20.30;;;;;;5066477;28;25078;-65
2022/04/17 06:40:33;;;;;;;10.75;6.47;;;7.50;19.00;;;;;;5047567;28;25088;-65
2022/04/17 06:43:01;;;;;;;9.27;6.85;;;7.60;19.90;;;;;;5066729;28;25046;-67
2022/04/17 06:45:28;;;;;;;11.00;6.43;;;7.70;19.20;;;;;;5066817;28;25057;-64
2022/04/17 06:47:55;;;;;;;9.10;6.03;;;7.70;19.60;;;;;;5067223;28;25068;-67
2022/04/17 06:50:22;;;;;;;10.13;6.30;;;7.80;18.70;;;;;;5071204;28;25058;-66
2022/04/17 06:52:51;;;;;;;10.70;6.55;;;7.90;19.30;;;;;;5071791;28;25086;-66
2022/04/17 06:55:17;;;;;;;11.23;6.53;;;8.00;18.90;;;;;;5068696;28;25073;-66
2022/04/17 06:57:47;;;;;;;13.18;6.22;;;8.10;18.30;;;;;;5066944;28;25075;-65
2022/04/17 07:00:14;;;;;;;9.27;6.40;;;8.30;18.20;;;;;;5047389;28;25139;-66
2022/04/17 07:02:41;;;;;;;8.30;6.22;;;8.50;17.80;;;;;;5066465;28;25065;-65
2022/04/17 07:05:07;;;;;;;11.15;6.28;;;8.60;17.30;;;;;;5065571;28;25136;-66
2022/04/17 07:07:33;;;;;;;9.68;6.45;;;8.60;16.50;;;;;;5067891;28;25078;-67
2022/04/17 07:10:00;;;;;;;9.02;6.03;;;8.70;16.20;;;;;;5067900;28;25062;-67
2022/04/17 07:12:25;;;;;;;9.05;6.80;;;8.70;15.50;;;;;;5066045;28;25064;-65
2022/04/17 07:14:51;;;;;;;9.32;6.32;;;8.80;16.10;;;;;;5066992;28;25057;-67
2022/04/17 07:17:17;;;;;;;10.98;6.07;;;9.00;16.20;;;;;;5051819;28;25091;-68
2022/04/17 07:19:43;;;;;;;7.72;6.20;;;9.20;15.90;;;;;;5065304;28;25080;-65
2022/04/17 07:22:08;;;;;;;11.80;5.75;;;9.30;15.90;;;;;;5067371;28;25067;-66
2022/04/17 07:24:34;;;;;;;8.95;6.38;;;9.40;15.10;;;;;;5065962;28;25151;-66
2022/04/17 07:27:01;;;;;;;7.47;5.43;;;9.50;14.20;;;;;;5065797;28;25070;-67
2022/04/17 07:29:27;;;;;;;8.95;6.35;;;9.50;13.70;;;;;;5065180;28;25072;-65
2022/04/17 07:31:53;;;;;;;7.10;5.20;;;9.60;13.20;;;;;;5065787;28;25063;-65
2022/04/17 07:34:20;;;;;;;6.90;5.10;;;9.70;12.90;;;;;;5065895;28;25127;-66
2022/04/17 07:36:52;;;;;;;7.97;5.43;;;9.90;12.20;;;;;;5066747;28;25120;-66
2022/04/17 07:39:18;;;;;;;8.02;5.13;;;10.10;10.00;;;;;;5066052;28;25071;-66
2022/04/17 07:41:46;;;;;;;7.57;5.65;;;10.00;7.40;;;;;;5065455;28;25064;-67
2022/04/17 07:44:12;;;;;;;8.35;5.82;;;10.20;8.80;;;;;;5065043;28;25119;-67
2022/04/17 07:46:39;;;;;;;9.48;5.88;;;10.60;8.10;;;;;;5065736;28;25055;-67
2022/04/17 07:49:05;;;;;;;8.45;5.38;;;10.70;7.40;;;;;;5060545;28;25143;-65
2022/04/17 07:51:31;;;;;;;10.68;5.60;;;10.80;6.90;;;;;;5064451;28;25063;-67
2022/04/17 07:53:56;;;;;;;6.53;5.20;;;11.20;7.60;;;;;;5064813;28;25055;-67
2022/04/17 07:56:22;;;;;;;6.85;5.13;;;11.50;6.20;;;;;;5065854;28;25064;-66
2022/04/17 07:58:47;;;;;;;5.90;5.10;;;11.60;2.10;;;;;;5065593;28;25167;-67
2022/04/17 08:01:15;;;;;;;8.15;4.85;;;11.50;4.90;;;;;;5064728;28;25072;-66
2022/04/17 08:06:10;;;;;;;9.20;5.35;;;11.80;3.40;;;;;;5064748;28;25076;-67
2022/04/17 08:08:37;;;;;;;5.60;4.68;;;12.20;2.50;;;;;;5065301;28;25075;-66
2022/04/17 08:11:04;;;;;;;9.15;5.40;;;12.40;1.00;;;;;;5064799;28;25109;-66
2022/04/17 08:13:30;;;;;;;9.00;5.10;;;12.50;1.00;;;;;;5047288;28;25057;-67
2022/04/17 08:15:56;;;;;;;6.38;4.95;;;12.30;1.10;;;;;;5067524;28;25080;-68
2022/04/17 08:18:21;;;;;;;6.88;5.10;;;12.60;1.10;;;;;;5065932;28;25064;-67
2022/04/17 08:20:47;;;;;;;6.03;5.18;;;12.60;1.00;;;;;;5070513;28;25065;-67
2022/04/17 08:23:12;;;;;;;5.82;4.50;;;12.80;1.00;;;;;;5075284;28;25064;-66
2022/04/17 08:25:38;;;;;;;6.15;5.10;;;12.90;1.00;;;;;;5047809;28;25071;-67
2022/04/17 08:28:05;;;;;;;10.32;5.28;;;13.60;1.00;;;;;;5065715;28;25106;-68
2022/04/17 08:30:31;;;;;;;9.02;4.65;;;13.80;1.00;;;;;;5065707;28;25172;-67
2022/04/17 08:32:58;;;;;;;5.15;4.20;;;13.90;1.00;;;;;;5068763;28;25130;-66
2022/04/17 08:35:23;;;;;;;5.13;4.40;;;14.10;1.00;;;;;;5079577;28;25087;-65
2022/04/17 08:37:50;;;;;;;6.50;5.20;;;14.20;1.00;;;;;;5077346;28;25134;-65
2022/04/17 08:40:16;;;;;;;7.65;4.57;;;14.00;1.00;;;;;;5079103;28;25054;-65
2022/04/17 08:42:44;;;;;;;5.88;4.57;;;13.90;1.00;;;;;;5080273;28;25068;-67
2022/04/17 08:45:11;;;;;;;5.78;4.90;;;13.80;1.00;;;;;;5082241;28;25054;-66
2022/04/17 08:47:38;;;;;;;5.85;4.32;;;13.90;1.00;;;;;;5077718;28;25105;-65
2022/04/17 08:50:08;;;;;;;7.85;5.55;;;14.00;1.00;;;;;;5074825;28;25143;-67
2022/04/17 08:52:34;;;;;;;5.95;4.75;;;13.80;1.00;;;;;;5074869;28;25133;-67
2022/04/17 08:55:03;;;;;;;5.53;4.32;;;14.30;1.00;;;;;;5076905;28;25076;-66
2022/04/17 08:57:29;;;;;;;7.70;4.50;;;14.00;1.00;;;;;;5079328;28;25065;-67
2022/04/17 08:59:54;;;;;;;6.82;4.55;;;13.90;1.00;;;;;;5081320;28;25088;-67
2022/04/17 09:02:20;;;;;;;7.30;4.40;;;14.20;1.00;;;;;;5077488;28;25062;-64
2022/04/17 09:04:46;;;;;;;8.10;4.80;;;14.60;1.00;;;;;;5078106;28;25075;-66
2022/04/17 09:07:13;;;;;;;5.78;4.43;;;15.30;1.00;;;;;;5063108;28;25085;-65
2022/04/17 09:09:50;;;;;;;6.35;4.47;;;15.60;1.00;;;;;;5078936;28;25132;-66
2022/04/17 09:12:24;;;;;;;5.68;4.28;;;15.50;1.00;;;;;;5067741;28;25064;-67
2022/04/17 09:14:50;;;;;;;5.18;4.43;;;16.00;1.00;;;;;;5067457;28;25128;-66
2022/04/17 09:17:16;;;;;;;4.20;3.80;;;15.60;1.00;;;;;;5067335;28;25248;-67
2022/04/17 09:19:43;;;;;;;8.18;4.30;;;15.30;1.00;;;;;;5066731;28;25057;-67
2022/04/17 09:22:12;;;;;;;7.57;4.35;;;15.20;1.00;;;;;;5068099;28;25086;-66
2022/04/17 09:24:39;;;;;;;6.00;4.60;;;15.00;1.00;;;;;;5068669;28;25112;-66
2022/04/17 09:27:07;;;;;;;5.60;4.18;;;15.10;1.00;;;;;;5077975;28;25092;-67
2022/04/17 09:29:38;;;;;;;6.63;4.38;;;15.20;1.00;;;;;;5064634;28;25071;-67
2022/04/17 09:32:07;;;;;;;7.65;4.20;;;15.20;1.00;;;;;;5062610;28;25155;-67
2022/04/17 09:34:54;;;;;;;7.40;4.57;;;15.40;1.00;;;;;;5062905;28;25094;-68
2022/04/17 09:37:21;;;;;;;6.15;4.65;;;15.10;1.00;;;;;;5068151;28;25115;-68
2022/04/17 09:39:48;;;;;;;5.22;4.03;;;15.30;1.00;;;;;;5066623;28;25068;-66
2022/04/17 09:42:21;;;;;;;6.00;4.15;;;15.80;1.00;;;;;;5066701;28;25060;-68
2022/04/17 09:44:47;;;;;;;;;;;15.60;1.00;;;;;;5068313;28;25101;-66
2022/04/17 09:47:24;;;;;;;7.18;4.47;;;16.30;1.00;;;;;;5075955;28;24076;-66
2022/04/17 09:49:50;;;;;;;6.70;4.53;;;16.50;1.00;;;;;;5069157;28;25104;-66
2022/04/17 09:52:16;;;;;;;8.07;4.80;;;16.70;1.00;;;;;;5069416;28;25068;-66
2022/04/17 09:54:42;;;;;;;7.75;4.40;;;16.60;1.00;;;;;;5066352;28;25072;-66
2022/04/17 09:57:08;;;;;;;5.35;4.63;;;16.60;1.00;;;;;;5068797;28;25134;-66
2022/04/17 09:59:36;;;;;;;4.65;3.90;;;16.90;1.00;;;;;;5059936;28;25048;-67
2022/04/17 10:02:02;;;;;;;5.63;4.35;;;17.10;1.00;;;;;;5067113;28;25049;-66
2022/04/17 10:04:28;;;;;;;7.57;4.40;;;17.10;1.00;;;;;;5065748;28;25096;-66
2022/04/17 10:06:57;;;;;;;5.72;4.50;;;17.70;1.00;;;;;;5066555;28;25145;-67
2022/04/17 10:09:23;;;;;;;6.50;4.68;;;17.70;1.00;;;;;;5065430;28;25066;-67
2022/04/17 10:11:51;;;;;;;5.22;4.72;;;17.50;1.00;;;;;;5066350;28;25064;-68
2022/04/17 10:14:17;;;;;;;6.22;4.60;;;16.70;1.00;;;;;;5065064;28;25149;-67
2022/04/17 10:16:45;;;;;;;6.63;4.55;;;16.80;1.00;;;;;;5065180;28;25075;-66
2022/04/17 10:19:13;;;;;;;5.22;4.22;;;17.10;1.00;;;;;;5066897;28;25072;-68
2022/04/17 10:21:39;;;;;;;4.88;4.47;;;17.40;1.00;;;;;;5055379;28;25093;-68
2022/04/17 10:24:09;;;;;;;6.28;5.18;;;17.80;1.00;;;;;;5052710;28;25104;-67
2022/04/17 10:26:43;;;;;;;6.50;4.43;;;17.70;1.00;;;;;;5067009;28;25058;-67
2022/04/17 10:29:13;;;;;;;6.28;4.78;;;17.20;1.00;;;;;;5067785;28;25138;-67
2022/04/17 10:31:49;;;;;;;5.57;4.78;;;17.10;1.00;;;;;;5065098;28;25121;-67
2022/04/17 10:34:36;;;;;;;7.78;4.47;;;17.40;1.00;;;;;;5066623;28;25062;-66
2022/04/17 10:37:21;;;;;;;5.07;4.53;;;17.70;1.00;;;;;;5065195;28;25063;-66
2022/04/17 10:39:50;;;;;;;5.18;4.63;;;17.80;1.00;;;;;;5068097;28;25059;-66
2022/04/17 10:42:16;;;;;;;6.82;5.70;;;17.30;1.00;;;;;;5066019;28;25134;-66
2022/04/17 10:44:42;;;;;;;6.90;4.80;;;16.80;1.00;;;;;;5066470;28;25069;-67
2022/04/17 10:47:20;;;;;;;6.97;5.18;;;16.80;1.00;;;;;;5066500;28;25133;-67
2022/04/17 10:49:56;;;;;;;6.88;4.93;;;16.60;1.00;;;;;;5065577;28;25109;-66
2022/04/17 10:52:31;;;;;;;6.43;5.07;;;17.20;1.00;;;;;;5065777;28;25052;-68
2022/04/17 10:55:10;;;;;;;5.30;4.68;;;17.30;1.00;;;;;;5066076;28;25069;-67
2022/04/17 10:57:47;;;;;;;6.05;4.63;;;17.10;1.00;;;;;;5065110;28;25062;-68
2022/04/17 11:00:36;;;;;;;8.82;4.65;;;16.80;1.00;;;;;;5064809;28;25141;-67
2022/04/17 11:03:09;;;;;;;5.45;4.65;;;17.50;1.00;;;;;;5066794;28;25107;-67
2022/04/17 11:08:24;;;;;;;5.45;4.95;;;17.40;1.00;;;;;;5065976;28;25099;-63
2022/04/17 11:11:00;;;;;;;6.38;5.47;;;18.00;1.00;;;;;;5065898;28;25048;-66
2022/04/17 11:13:26;;;;;;;5.70;4.43;;;17.70;1.00;;;;;;5065996;28;25065;-66
2022/04/17 11:15:55;;;;;;;6.07;5.30;;;17.70;1.00;;;;;;5067658;28;25081;-68
2022/04/17 11:18:26;;;;;;;6.68;4.70;;;18.10;1.00;;;;;;5070707;28;25065;-66
2022/04/17 11:20:53;;;;;;;8.10;4.90;;;18.10;1.00;;;;;;5070803;28;25131;-67
2022/04/17 11:23:47;;;;;;;5.60;4.80;;;18.20;1.00;;;;;;5066184;28;25074;-67
2022/04/17 11:26:12;;;;;;;9.65;5.18;;;18.70;1.00;;;;;;5065560;28;25049;-68
2022/04/17 11:28:38;;;;;;;11.75;4.70;;;18.90;1.00;;;;;;5065608;28;25068;-68
2022/04/17 11:31:04;;;;;;;6.43;5.20;;;18.30;1.00;;;;;;5065801;28;25130;-67
2022/04/17 11:33:30;;;;;;;4.82;4.00;;;18.20;1.00;;;;;;5066127;28;25055;-66
2022/04/17 11:35:57;;;;;;;5.75;3.67;;;18.70;1.00;;;;;;5066741;28;25074;-67
2022/04/17 11:38:22;;;;;;;6.68;4.25;;;19.80;1.00;;;;;;5066907;28;25062;-67
2022/04/17 11:40:48;;;;;;;5.60;4.10;;;20.30;1.00;;;;;;5065562;28;25163;-67
2022/04/17 11:43:16;;;;;;;5.82;4.10;;;19.40;1.00;;;;;;5066446;28;25136;-67
2022/04/17 11:45:44;;;;;;;4.25;3.58;;;19.70;1.00;;;;;;5066342;28;25056;-68
2022/04/17 11:48:12;;;;;;;4.15;3.75;;;19.70;1.00;;;;;;5065274;28;25112;-67
2022/04/17 11:50:38;;;;;;;4.40;4.00;;;20.10;1.00;;;;;;5066166;28;25057;-68
2022/04/17 11:53:13;;;;;;;4.05;3.65;;;19.80;1.00;;;;;;5067782;28;25119;-68
2022/04/17 11:55:41;;;;;;;5.75;3.67;;;20.30;1.00;;;;;;5063317;28;25054;-65
2022/04/17 11:58:22;;;;;;;7.28;3.97;;;19.80;1.00;;;;;;5060355;28;25077;-66
2022/04/17 12:00:58;;;;;;;5.82;3.90;;;19.20;1.00;;;;;;5063447;28;25101;-67
2022/04/17 12:03:43;;;;;;;3.83;3.40;;;19.70;1.00;;;;;;5063479;28;25061;-65
2022/04/17 12:06:09;;;;;;;3.92;3.60;;;20.30;1.00;;;;;;5064073;28;25133;-67
2022/04/17 12:08:40;;;;;;;4.53;3.63;;;20.40;1.00;;;;;;5064059;28;25098;-67
2022/04/17 12:11:07;;;;;;;4.45;4.03;;;20.10;1.00;;;;;;5047293;28;25096;-67
2022/04/17 12:13:33;;;;;;;5.38;3.22;;;19.90;1.00;;;;;;5065050;28;25146;-70
2022/04/17 12:16:06;;;;;;;7.38;4.10;;;19.90;1.00;;;;;;5046790;28;25070;-66
2022/04/17 12:18:31;;;;;;;11.52;3.80;;;19.90;1.00;;;;;;5064276;28;25139;-68
2022/04/17 12:20:59;;;;;;;6.35;3.80;;;20.20;1.00;;;;;;5047567;28;25095;-65
2022/04/17 12:23:25;;;;;;;5.20;3.97;;;20.80;1.00;;;;;;5065558;28;25168;-66
2022/04/17 12:25:52;;;;;;;7.25;3.35;;;20.30;1.00;;;;;;5065425;28;25093;-65
2022/04/17 12:28:18;;;;;;;3.85;3.42;;;20.20;1.00;;;;;;5046833;28;25073;-66
2022/04/17 12:30:43;;;;;;;4.10;3.80;;;20.10;1.00;;;;;;5066295;28;25067;-67
2022/04/17 12:33:23;;;;;;;6.00;3.97;;;19.90;1.00;;;;;;5066713;28;25067;-68
2022/04/17 12:36:08;;;;;;;4.43;3.40;;;20.00;1.00;;;;;;5051289;28;25122;-66
2022/04/17 12:38:39;;;;;;;5.22;3.88;;;20.60;1.00;;;;;;5066445;28;25070;-66
2022/04/17 12:41:30;;;;;;;6.93;3.70;;;20.40;1.00;;;;;;5066082;28;25081;-66
2022/04/17 12:43:55;;;;;;;4.70;3.90;;;20.30;1.00;;;;;;5065596;28;25124;-67
2022/04/17 12:46:29;;;;;;;4.65;3.50;;;20.70;1.00;;;;;;5068897;28;25069;-66
2022/04/17 12:49:24;;;;;;;7.25;3.50;;;20.60;1.00;;;;;;5074631;28;25072;-67
2022/04/17 12:51:59;;;;;;;5.28;3.75;;;19.90;1.00;;;;;;5083085;28;25058;-66
2022/04/17 12:54:30;;;;;;;4.07;3.25;;;20.10;1.00;;;;;;5075583;28;25064;-67
2022/04/17 12:57:02;;;;;;;5.93;3.40;;;19.90;1.00;;;;;;5067149;28;25089;-67
2022/04/17 12:59:49;;;;;;;7.63;3.13;;;19.90;1.00;;;;;;5067340;28;25067;-66
2022/04/17 13:02:21;;;;;;;4.13;3.40;;;19.90;1.00;;;;;;5064692;28;25058;-67
2022/04/17 13:04:47;;;;;;;5.97;4.03;;;20.00;1.00;;;;;;5064449;28;25049;-66
2022/04/17 13:07:16;;;;;;;4.28;3.53;;;19.80;1.00;;;;;;5065495;28;25067;-69
2022/04/17 13:09:53;;;;;;;10.63;4.68;;;19.80;1.00;;;;;;5045091;28;25151;-66
2022/04/17 13:12:45;;;;;;;4.53;3.28;;;19.90;1.00;;;;;;5065017;28;25146;-65